Time;durP1;ratioP1;P1;durP2;ratioP2;P2;SDS_P1;SDS_P2;PMS_P1;PMS_P2;Temp;Humidity;BMP_temperature;BMP_pressure;BME280_temperature;BME280_humidity;BME280_pressure;Samples;Min_cycle;Max_cycle;Signal;HPM_P1;HPM_P2
2022/06/22 00:02:26;;;;;;;13.43;12.38;;;;;;;19.47;83.02;92521.00;5005529;28;20231;-71
2022/06/22 00:04:56;;;;;;;14.85;13.52;;;;;;;19.63;83.07;92533.19;5003139;28;20193;-71
2022/06/22 00:07:26;;;;;;;14.90;13.70;;;;;;;19.65;82.55;92540.81;5002912;28;20257;-71
2022/06/22 00:09:58;;;;;;;14.48;13.07;;;;;;;19.55;83.11;92536.72;4999952;28;20194;-73
2022/06/22 00:12:29;;;;;;;15.57;14.07;;;;;;;19.55;83.28;92528.03;5001950;28;20237;-71
2022/06/22 00:14:58;;;;;;;15.32;13.80;;;;;;;19.47;84.02;92537.63;5002258;28;20195;-72
2022/06/22 00:17:26;;;;;;;13.73;12.53;;;;;;;19.54;83.60;92551.09;5004453;28;20238;-74
2022/06/22 00:20:00;;;;;;;14.57;13.27;;;;;;;19.54;83.62;92548.44;5003330;28;20210;-75
2022/06/22 00:22:26;;;;;;;13.20;12.00;;;;;;;19.63;82.96;92550.94;5001761;28;20232;-76
2022/06/22 00:25:09;;;;;;;13.57;12.37;;;;;;;19.69;83.03;92550.38;5003550;28;20195;-78
2022/06/22 00:27:36;;;;;;;13.17;12.10;;;;;;;19.63;82.74;92543.78;5001638;28;20603;-79
2022/06/22 00:30:28;;;;;;;15.13;13.73;;;;;;;19.62;82.95;92542.25;5003447;28;20193;-79
2022/06/22 00:33:02;;;;;;;15.43;13.43;;;;;;;19.45;82.26;92502.00;5000409;28;20293;-78
2022/06/22 00:35:49;;;;;;;15.60;14.17;;;;;;;19.73;81.63;92545.19;5002082;28;20210;-77
2022/06/22 00:38:26;;;;;;;14.52;13.02;;;;;;;19.84;80.58;92549.69;5002770;28;20203;-77
2022/06/22 00:40:56;;;;;;;13.43;12.15;;;;;;;20.03;79.79;92552.47;4999764;28;20293;-77
2022/06/22 00:43:25;;;;;;;16.20;14.67;;;;;;;20.27;78.35;92549.78;4999702;28;20190;-77
2022/06/22 00:45:51;;;;;;;14.90;13.50;;;;;;;20.50;77.26;92552.63;4998458;28;20227;-77
2022/06/22 00:48:27;;;;;;;16.53;14.83;;;;;;;20.76;75.84;92549.50;5001885;28;20266;-76
2022/06/22 00:50:59;;;;;;;16.67;15.27;;;;;;;20.79;75.08;92523.06;4999034;28;20230;-77
2022/06/22 00:53:49;;;;;;;16.33;14.70;;;;;;;21.08;74.29;92551.03;4999955;28;20187;-78
2022/06/22 00:56:36;;;;;;;13.80;12.53;;;;;;;21.10;73.98;92559.44;4998966;28;20234;-78
2022/06/22 00:59:31;;;;;;;14.82;13.45;;;;;;;21.18;74.10;92561.16;4999239;28;20191;-78
2022/06/22 01:02:31;;;;;;;14.90;13.18;;;;;;;21.25;74.07;92566.63;4978135;28;20226;-78
2022/06/22 01:05:11;;;;;;;14.82;13.32;;;;;;;21.26;72.95;92558.31;4952720;28;20221;-78
2022/06/22 01:07:55;;;;;;;15.93;14.43;;;;;;;21.24;73.38;92560.56;4997996;28;20252;-79
2022/06/22 01:10:30;;;;;;;15.88;14.50;;;;;;;21.17;73.89;92554.31;5000254;28;20316;-77
2022/06/22 01:13:08;;;;;;;16.35;15.10;;;;;;;21.13;73.84;92553.44;4998094;28;20178;-77
2022/06/22 01:15:37;;;;;;;16.20;14.63;;;;;;;21.04;74.40;92545.69;4998295;28;20216;-78
2022/06/22 01:18:40;;;;;;;15.70;14.30;;;;;;;21.19;73.90;92541.44;5000739;28;20192;-76
2022/06/22 01:21:08;;;;;;;15.45;13.40;;;;;;;20.92;74.94;92537.75;4988643;28;20238;-78
2022/06/22 01:24:04;;;;;;;15.77;14.35;;;;;;;21.04;72.28;92521.00;4999688;28;20246;-78
2022/06/22 01:26:48;;;;;;;18.38;14.82;;;;;;;21.13;73.03;92532.22;5005287;28;20231;-78
2022/06/22 01:29:21;;;;;;;19.00;13.63;;;;;;;21.26;71.61;92544.28;5002113;28;20196;-79
2022/06/22 01:31:56;;;;;;;14.68;13.40;;;;;;;21.32;71.68;92540.25;4988601;28;20231;-78
2022/06/22 01:34:24;;;;;;;15.68;13.43;;;;;;;21.41;71.35;92538.94;4981635;28;20254;-78
2022/06/22 01:36:49;;;;;;;15.77;14.38;;;;;;;21.34;71.33;92544.06;4979685;28;20331;-78
2022/06/22 01:39:15;;;;;;;15.50;13.95;;;;;;;21.38;70.33;92533.53;4978580;28;20201;-78
2022/06/22 01:41:43;;;;;;;14.80;13.32;;;;;;;21.54;69.95;92536.94;4984507;28;20226;-79
2022/06/22 01:44:33;;;;;;;14.88;13.50;;;;;;;21.53;69.76;92536.16;4982556;28;20226;-78
2022/06/22 01:47:10;;;;;;;15.90;14.38;;;;;;;21.53;69.69;92530.06;4984905;28;20251;-77
2022/06/22 01:49:51;;;;;;;15.30;13.70;;;;;;;21.47;69.57;92518.19;4987470;28;21246;-73
2022/06/22 01:52:45;;;;;;;14.73;13.27;;;;;;;21.44;69.83;92521.53;4985166;28;20221;-77
2022/06/22 01:55:23;;;;;;;15.20;13.70;;;;;;;21.50;69.11;92515.59;4977841;28;20202;-78
2022/06/22 01:58:15;;;;;;;15.68;12.98;;;;;;;21.48;69.52;92517.06;5004048;28;20274;-78
2022/06/22 02:00:53;;;;;;;14.30;13.00;;;;;;;21.50;69.67;92520.13;5003997;28;20277;-78
2022/06/22 02:03:37;;;;;;;14.77;13.48;;;;;;;21.46;69.96;92508.69;4991370;28;20197;-77
2022/06/22 02:09:09;;;;;;;16.08;14.65;;;;;;;21.32;71.30;92530.41;5002443;28;20205;-75
2022/06/22 02:11:47;;;;;;;14.75;13.45;;;;;;;20.96;72.84;92516.63;5004373;28;20226;-78
2022/06/22 02:14:19;;;;;;;14.95;13.73;;;;;;;20.81;75.25;92530.66;5006023;28;20244;-78
2022/06/22 02:16:52;;;;;;;15.55;14.05;;;;;;;20.49;76.42;92522.69;5008210;28;20229;-78
2022/06/22 02:19:18;;;;;;;15.55;14.15;;;;;;;20.52;76.26;92522.00;5004438;28;20199;-76
2022/06/22 02:21:53;;;;;;;14.77;13.35;;;;;;;20.49;77.56;92525.34;4992572;28;20230;-77
2022/06/22 02:24:27;;;;;;;14.68;13.25;;;;;;;20.40;78.06;92531.91;4981698;28;20203;-79
2022/06/22 02:27:23;;;;;;;16.50;14.70;;;;;;;20.37;77.45;92511.38;4995966;28;20232;-80
2022/06/22 02:29:53;;;;;;;14.57;13.18;;;;;;;19.90;78.21;92454.81;4992157;28;20191;-80
2022/06/22 02:32:25;;;;;;;16.63;14.73;;;;;;;20.08;78.91;92493.16;5003279;28;20234;-81
2022/06/22 02:34:55;;;;;;;14.57;13.38;;;;;;;20.18;78.62;92511.25;5005691;28;20196;-81
2022/06/22 02:37:23;;;;;;;16.15;14.13;;;;;;;20.05;78.75;92515.81;5003110;28;20231;-80
2022/06/22 02:39:53;;;;;;;15.10;13.63;;;;;;;20.11;78.94;92513.72;5003217;28;20195;-80
2022/06/22 02:45:06;;;;;;;15.85;14.10;;;;;;;20.07;79.87;92516.25;4982619;28;20198;-81
2022/06/22 02:47:52;;;;;;;15.87;14.47;;;;;;;19.94;80.64;92522.72;5003940;28;20231;-80
2022/06/22 02:50:21;;;;;;;15.48;13.98;;;;;;;19.87;81.22;92514.59;5005894;28;20270;-81
2022/06/22 02:52:50;;;;;;;16.13;14.73;;;;;;;19.81;81.84;92515.94;5003145;28;20191;-80
2022/06/22 02:55:19;;;;;;;14.53;13.17;;;;;;;19.89;80.48;92507.03;5007787;28;20213;-80
2022/06/22 02:57:51;;;;;;;15.20;13.70;;;;;;;19.99;81.11;92509.22;5003823;28;20235;-77
2022/06/22 03:00:20;;;;;;;15.87;14.27;;;;;;;19.99;80.94;92516.38;5003061;28;20198;-79
2022/06/22 03:02:46;;;;;;;15.20;13.80;;;;;;;19.91;80.83;92499.53;4981714;28;20204;-77
2022/06/22 03:05:14;;;;;;;15.23;13.73;;;;;;;20.03;80.18;92518.03;4984417;28;20177;-79
2022/06/22 03:07:44;;;;;;;14.77;13.40;;;;;;;20.12;80.63;92528.50;4983851;28;20235;-79
2022/06/22 03:10:22;;;;;;;15.43;13.80;;;;;;;20.26;80.03;92523.59;4985259;28;20198;-79
2022/06/22 03:12:49;;;;;;;15.10;13.17;;;;;;;20.21;79.98;92524.63;5006419;28;20221;-78
2022/06/22 03:15:21;;;;;;;15.85;14.35;;;;;;;20.63;78.98;92531.00;5005523;28;20933;-79
2022/06/22 03:17:47;;;;;;;15.55;14.23;;;;;;;21.01;77.07;92535.75;5001069;28;20308;-81
2022/06/22 03:20:16;;;;;;;15.00;13.60;;;;;;;21.20;75.82;92524.41;5002963;28;20183;-79
2022/06/22 03:22:54;;;;;;;15.77;14.37;;;;;;;21.73;73.80;92527.09;5001624;28;20219;-79
2022/06/22 03:25:22;;;;;;;15.13;13.57;;;;;;;21.98;72.28;92530.28;5000524;28;20288;-79
2022/06/22 03:27:58;;;;;;;15.27;13.98;;;;;;;21.86;72.87;92517.91;4999870;28;20179;-78
2022/06/22 03:30:34;;;;;;;16.17;14.68;;;;;;;22.01;72.50;92529.56;4999862;28;20186;-78
2022/06/22 03:33:11;;;;;;;15.98;14.55;;;;;;;22.08;72.29;92529.72;5004132;28;20232;-78
2022/06/22 03:35:42;;;;;;;15.85;14.25;;;;;;;22.35;71.56;92523.38;5002491;28;20231;-78
2022/06/22 03:38:18;;;;;;;17.23;14.90;;;;;;;22.84;68.59;92505.66;4999813;28;20174;-78
2022/06/22 03:40:55;;;;;;;18.05;13.48;;;;;;;23.02;68.42;92520.00;5000314;28;20239;-79
2022/06/22 03:43:23;;;;;;;16.27;14.57;;;;;;;23.55;66.16;92531.47;5003125;28;20189;-84
2022/06/22 03:45:55;;;;;;;14.45;13.35;;;;;;;23.33;67.25;92533.06;4999171;28;20226;-79
2022/06/22 03:48:36;;;;;;;15.38;13.85;;;;;;;22.59;70.01;92524.97;5004561;28;20194;-79
2022/06/22 03:51:18;;;;;;;14.95;13.45;;;;;;;22.20;71.53;92514.38;5001552;28;20225;-79
2022/06/22 03:53:57;;;;;;;15.88;14.32;;;;;;;21.78;72.73;92500.28;5003414;28;20213;-79
2022/06/22 03:56:28;;;;;;;16.95;15.32;;;;;;;21.67;74.54;92522.41;5003076;28;20233;-79
2022/06/22 03:58:54;;;;;;;15.80;14.32;;;;;;;21.31;75.82;92528.84;5006566;28;20178;-77
2022/06/22 04:01:21;;;;;;;17.40;15.00;;;;;;;21.74;73.36;92539.25;5002703;28;20217;-76
2022/06/22 04:03:47;;;;;;;16.17;14.43;;;;;;;21.37;76.22;92540.72;5000321;28;20208;-75
2022/06/22 04:06:24;;;;;;;15.38;13.88;;;;;;;21.75;73.73;92548.81;5001406;28;20249;-76
2022/06/22 04:08:50;;;;;;;17.52;14.40;;;;;;;22.14;72.72;92549.59;5003666;28;20734;-77
2022/06/22 04:11:25;;;;;;;16.02;14.43;;;;;;;22.48;70.96;92548.72;5003096;28;20271;-80
2022/06/22 04:14:04;;;;;;;18.88;14.73;;;;;;;22.86;68.60;92538.03;5000622;28;20235;-78
2022/06/22 04:16:38;;;;;;;16.30;14.63;;;;;;;23.23;66.93;92547.00;5001840;28;20256;-76
2022/06/22 04:19:20;;;;;;;16.73;13.95;;;;;;;23.31;66.40;92551.34;5001775;28;20187;-79
2022/06/22 04:21:50;;;;;;;14.57;13.35;;;;;;;23.38;66.35;92548.75;5001446;28;20242;-77
2022/06/22 04:24:23;;;;;;;15.73;14.13;;;;;;;23.10;67.74;92536.88;5003422;28;20220;-77
2022/06/22 04:27:11;;;;;;;15.88;14.27;;;;;;;23.44;66.65;92547.31;5000103;28;20618;-74
2022/06/22 04:29:52;;;;;;;15.55;13.95;;;;;;;23.89;65.24;92545.66;5001648;28;20202;-79
2022/06/22 04:32:30;;;;;;;15.85;14.25;;;;;;;23.67;65.29;92541.94;5003050;28;20233;-80
2022/06/22 04:35:07;;;;;;;16.33;14.20;;;;;;;24.30;62.13;92489.38;4999701;28;20221;-82
2022/06/22 04:37:45;;;;;;;15.68;13.15;;;;;;;26.75;55.40;92551.06;4999856;28;20237;-82
2022/06/22 04:40:23;;;;;;;15.10;13.63;;;;;;;26.10;56.94;92547.75;5002599;28;20178;-88
2022/06/22 04:42:56;;;;;;;14.52;13.27;;;;;;;25.07;59.98;92550.81;5003453;28;20227;-85
2022/06/22 04:45:32;;;;;;;15.70;14.18;;;;;;;24.47;61.55;92552.88;4999498;28;20206;-84
2022/06/22 04:48:04;;;;;;;15.05;13.65;;;;;;;24.33;62.74;92559.97;5001806;28;20214;-80
2022/06/22 04:50:30;;;;;;;15.73;14.15;;;;;;;24.73;62.16;92558.13;5000701;28;20184;-82
2022/06/22 04:52:59;;;;;;;14.75;13.25;;;;;;;23.92;63.77;92534.28;5003029;28;20176;-81
2022/06/22 04:55:27;;;;;;;15.60;14.25;;;;;;;23.53;63.64;92544.41;5000006;28;20270;-82
2022/06/22 04:58:00;;;;;;;15.02;13.52;;;;;;;24.53;62.19;92570.09;5000116;28;20216;-81
2022/06/22 05:00:30;;;;;;;15.63;13.73;;;;;;;24.12;62.82;92544.47;4998520;28;20178;-82
2022/06/22 05:03:00;;;;;;;15.25;13.80;;;;;;;24.19;63.07;92549.13;5001250;28;20219;-81
2022/06/22 05:05:30;;;;;;;15.75;14.35;;;;;;;25.00;60.93;92577.47;5000091;28;20182;-81
2022/06/22 05:08:17;;;;;;;15.65;13.68;;;;;;;26.15;57.26;92580.25;5000146;28;20222;-83
2022/06/22 05:10:54;;;;;;;15.25;13.85;;;;;;;25.99;57.50;92590.50;4998490;28;20233;-82
2022/06/22 05:13:25;;;;;;;15.27;13.93;;;;;;;26.25;56.11;92587.59;4996826;28;20183;-82
2022/06/22 05:15:54;;;;;;;14.70;13.20;;;;;;;27.44;53.01;92597.88;4989665;28;20223;-82
2022/06/22 05:18:47;;;;;;;13.35;12.30;;;;;;;29.02;48.67;92584.06;5003773;28;20247;-81
2022/06/22 05:21:31;;;;;;;12.82;11.68;;;;;;;30.05;46.15;92603.72;4996797;28;20239;-82
2022/06/22 05:24:01;;;;;;;13.98;12.77;;;;;;;31.91;41.97;92590.56;5008495;28;20166;-82
2022/06/22 05:26:28;;;;;;;14.23;13.02;;;;;;;30.31;43.87;92534.97;5002525;28;20241;-83
2022/06/22 05:29:03;;;;;;;13.75;12.50;;;;;;;30.20;45.30;92609.72;5004199;28;20204;-82
2022/06/22 05:31:33;;;;;;;14.07;12.88;;;;;;;30.88;44.26;92608.63;5001312;28;20258;-82
2022/06/22 05:34:04;;;;;;;14.00;12.80;;;;;;;28.50;48.23;92534.03;5003801;28;20178;-82
2022/06/22 05:36:34;;;;;;;13.88;12.38;;;;;;;27.94;49.96;92512.75;5003863;28;20283;-82
2022/06/22 05:39:01;;;;;;;13.65;12.35;;;;;;;30.92;43.86;92582.38;5005407;28;20280;-82
2022/06/22 05:41:32;;;;;;;13.38;12.07;;;;;;;33.88;38.10;92603.59;5001378;28;20231;-81
2022/06/22 05:44:04;;;;;;;12.60;11.43;;;;;;;35.59;34.83;92607.47;5006100;28;20184;-82
2022/06/22 05:46:30;;;;;;;12.48;11.35;;;;;;;35.26;35.12;92603.41;5004263;28;20249;-79
2022/06/22 05:48:56;;;;;;;12.95;11.65;;;;;;;37.20;31.45;92601.28;5002915;28;20195;-79
2022/06/22 05:51:42;;;;;;;17.90;12.07;;;;;;;36.20;32.79;92615.25;5005919;28;20220;-79
2022/06/22 05:54:23;;;;;;;13.02;11.68;;;;;;;35.89;32.76;92598.03;5002508;28;20191;-79
2022/06/22 05:57:10;;;;;;;14.00;10.98;;;;;;;37.08;31.17;92618.44;5002957;28;20224;-78
2022/06/22 06:00:03;;;;;;;13.77;12.00;;;;;;;34.83;35.40;92627.50;5006715;28;20179;-78
2022/06/22 06:02:33;;;;;;;12.15;11.05;;;;;;;35.40;34.31;92625.50;4987056;28;20211;-79
2022/06/22 06:05:11;;;;;;;12.48;11.23;;;;;;;34.92;34.32;92616.81;5006882;28;20219;-79
2022/06/22 06:07:46;;;;;;;12.82;11.68;;;;;;;36.29;32.49;92620.78;4962461;28;1231439;-80
2022/06/22 06:10:22;;;;;;;12.73;11.63;;;;;;;35.21;34.39;92614.81;5008935;28;20202;-79
2022/06/22 06:13:02;;;;;;;13.13;11.82;;;;;;;35.66;34.48;92623.56;4988715;28;20216;-79
2022/06/22 06:15:40;;;;;;;12.50;11.40;;;;;;;33.90;37.26;92617.47;4987144;28;20199;-80
2022/06/22 06:18:11;;;;;;;13.35;12.25;;;;;;;33.22;38.92;92599.66;4988091;28;20224;-79
2022/06/22 06:20:43;;;;;;;13.95;12.55;;;;;;;32.44;39.40;92609.31;4985648;28;20231;-79
2022/06/22 06:23:35;;;;;;;12.88;11.65;;;;;;;32.68;38.96;92593.81;5003591;28;20329;-79
2022/06/22 06:28:57;;;;;;;12.48;11.38;;;;;;;32.00;40.85;92604.28;5004197;28;20254;-79
2022/06/22 06:31:31;;;;;;;13.23;12.13;;;;;;;33.77;37.24;92592.22;5001518;28;20242;-79
2022/06/22 06:33:59;;;;;;;13.48;11.80;;;;;;;31.62;43.01;92608.38;5003120;28;20239;-79
2022/06/22 06:36:43;;;;;;;14.23;12.65;;;;;;;33.32;37.93;92585.91;5004237;28;20235;-78
2022/06/22 06:39:22;;;;;;;13.85;12.43;;;;;;;32.22;41.47;92605.44;5001834;28;20192;-79
2022/06/22 06:42:03;;;;;;;14.40;12.52;;;;;;;31.98;42.36;92598.56;5001054;28;20212;-79
2022/06/22 06:44:31;;;;;;;14.07;12.68;;;;;;;30.95;45.24;92566.16;4986490;28;20172;-79
2022/06/22 06:47:03;;;;;;;14.40;13.07;;;;;;;33.61;39.86;92602.28;5003066;28;20223;-79
2022/06/22 06:49:41;;;;;;;18.15;14.02;;;;;;;32.91;39.67;92572.09;5003731;28;20184;-79
2022/06/22 06:52:35;;;;;;;15.32;13.82;;;;;;;32.95;39.55;92593.69;5003215;28;20232;-79
2022/06/22 06:55:08;;;;;;;17.45;14.90;;;;;;;29.30;48.70;92586.63;5002148;28;20176;-79
2022/06/22 06:57:36;;;;;;;16.60;15.00;;;;;;;28.46;48.84;92538.66;4984852;28;20219;-80
2022/06/22 07:00:09;;;;;;;16.70;15.23;;;;;;;28.90;49.75;92570.31;4993244;28;20211;-79
2022/06/22 07:02:38;;;;;;;18.65;14.60;;;;;;;28.32;51.40;92562.88;4983935;28;20246;-79
2022/06/22 07:05:10;;;;;;;16.80;15.10;;;;;;;27.89;54.00;92572.22;4984470;28;20213;-79
2022/06/22 07:08:10;;;;;;;16.63;15.10;;;;;;;27.60;54.22;92562.63;4983979;28;20262;-79
2022/06/22 07:10:44;;;;;;;22.92;16.15;;;;;;;26.79;54.59;92561.78;4984178;28;20207;-79
2022/06/22 07:13:32;;;;;;;17.60;15.15;;;;;;;26.05;54.27;92570.28;4984250;28;20200;-78
2022/06/22 07:16:04;;;;;;;18.38;15.55;;;;;;;26.22;53.90;92534.78;4982706;28;20239;-80
2022/06/22 07:18:38;;;;;;;16.70;15.00;;;;;;;26.38;52.54;92539.81;4984427;28;21239;-79
2022/06/22 07:21:32;;;;;;;17.60;15.70;;;;;;;26.69;53.74;92564.03;4983895;28;20217;-78
2022/06/22 07:23:57;;;;;;;19.30;15.18;;;;;;;26.65;52.59;92563.28;4982798;28;20176;-79
2022/06/22 07:26:37;;;;;;;18.92;17.00;;;;;;;26.82;54.66;92561.78;4983069;28;20235;-79
2022/06/22 07:29:14;;;;;;;16.67;15.02;;;;;;;26.82;52.91;92526.94;4986932;28;20184;-80
2022/06/22 07:31:59;;;;;;;19.65;15.55;;;;;;;27.01;53.40;92555.28;4967150;28;20227;-82
2022/06/22 07:34:35;;;;;;;19.00;15.00;;;;;;;27.23;52.81;92535.41;4984520;28;20172;-81
2022/06/22 07:37:28;;;;;;;17.73;15.82;;;;;;;27.21;52.34;92561.84;4982733;28;20212;-82
2022/06/22 07:40:01;;;;;;;17.23;15.43;;;;;;;27.63;52.84;92553.78;4964017;28;21020;-81
2022/06/22 07:42:27;;;;;;;18.50;16.55;;;;;;;27.39;53.15;92536.59;4983696;28;20232;-82
2022/06/22 07:44:53;;;;;;;18.85;16.92;;;;;;;27.95;51.35;92558.00;4982943;28;20255;-83
2022/06/22 07:47:29;;;;;;;20.45;16.52;;;;;;;27.65;51.76;92560.31;4979805;28;20224;-83
2022/06/22 07:50:01;;;;;;;19.13;16.55;;;;;;;27.80;50.57;92558.41;4983824;28;20176;-82
2022/06/22 07:52:41;;;;;;;18.75;16.65;;;;;;;27.42;50.54;92548.47;4982590;28;20248;-82
2022/06/22 07:55:34;;;;;;;17.80;15.75;;;;;;;27.44;51.98;92570.31;4983494;28;20200;-82
2022/06/22 07:58:15;;;;;;;18.90;15.38;;;;;;;27.92;51.01;92569.50;4981492;28;20242;-82
2022/06/22 08:00:43;;;;;;;18.25;16.48;;;;;;;27.87;50.11;92561.88;4986494;28;20234;-82
2022/06/22 08:03:27;;;;;;;17.52;15.65;;;;;;;27.54;51.46;92545.38;5001984;28;20195;-82
2022/06/22 08:05:57;;;;;;;17.95;15.93;;;;;;;26.81;52.62;92546.84;4983007;28;20227;-83
2022/06/22 08:08:39;;;;;;;21.40;15.55;;;;;;;27.47;52.16;92583.69;4984104;28;20196;-82
2022/06/22 08:11:14;;;;;;;17.73;15.52;;;;;;;27.33;51.54;92523.94;4978892;28;21249;-82
2022/06/22 08:13:58;;;;;;;18.73;15.65;;;;;;;27.97;51.00;92571.78;4982983;28;20199;-82
2022/06/22 08:16:32;;;;;;;16.92;15.13;;;;;;;28.13;52.05;92576.75;4976403;28;20231;-82
2022/06/22 08:19:00;;;;;;;18.02;15.00;;;;;;;28.74;50.22;92578.84;5002542;28;20204;-81
2022/06/22 08:21:27;;;;;;;17.67;15.82;;;;;;;27.94;52.01;92569.88;5002951;28;20240;-82
2022/06/22 08:23:55;;;;;;;17.23;15.43;;;;;;;27.05;55.13;92570.25;5001565;28;20244;-83
2022/06/22 08:26:26;;;;;;;17.38;15.25;;;;;;;26.64;54.01;92575.13;4994244;28;20240;-81
2022/06/22 08:28:52;;;;;;;21.05;16.70;;;;;;;26.21;56.29;92570.72;4981971;28;20276;-82
2022/06/22 08:31:18;;;;;;;18.40;16.50;;;;;;;26.61;56.54;92567.84;4982987;28;20233;-82
2022/06/22 08:33:57;;;;;;;17.80;14.95;;;;;;;26.33;57.04;92559.69;4983153;28;20193;-82
2022/06/22 08:36:38;;;;;;;21.48;16.25;;;;;;;25.97;56.61;92557.97;4983574;28;20223;-82
2022/06/22 08:39:16;;;;;;;16.27;14.23;;;;;;;26.05;54.46;92545.41;4985816;28;20248;-82
2022/06/22 08:42:06;;;;;;;19.60;14.23;;;;;;;26.30;54.78;92525.66;4995874;28;20251;-82
2022/06/22 08:44:41;;;;;;;17.55;14.52;;;;;;;26.73;55.39;92562.16;5001436;28;20175;-81
2022/06/22 08:47:25;;;;;;;17.95;15.80;;;;;;;26.43;56.68;92568.91;5000219;28;20276;-82
2022/06/22 08:50:19;;;;;;;17.67;15.88;;;;;;;26.20;58.50;92581.81;4990802;28;20203;-82
2022/06/22 08:53:19;;;;;;;18.08;15.80;;;;;;;26.83;55.83;92576.72;4982310;28;20204;-83
2022/06/22 08:55:53;;;;;;;15.95;14.25;;;;;;;26.79;55.14;92569.81;4973944;28;20223;-82
2022/06/22 08:58:43;;;;;;;17.33;15.45;;;;;;;27.23;54.79;92564.91;4989172;28;20190;-81
2022/06/22 09:01:20;;;;;;;17.92;15.70;;;;;;;26.80;55.29;92531.94;4986291;28;20251;-82
2022/06/22 09:04:03;;;;;;;18.17;15.02;;;;;;;27.12;54.95;92561.44;4984009;28;20235;-82
2022/06/22 09:06:50;;;;;;;17.92;14.68;;;;;;;27.15;55.21;92558.00;4982097;28;20248;-81
2022/06/22 09:09:31;;;;;;;17.77;14.30;;;;;;;27.37;55.14;92554.19;4967617;28;20659;-82
2022/06/22 09:12:20;;;;;;;15.70;14.20;;;;;;;26.92;53.64;92549.53;4981674;28;20668;-82
2022/06/22 09:15:31;;;;;;;17.27;15.02;;;;;;;26.94;54.69;92515.09;4979974;28;20176;-82
2022/06/22 09:18:06;;;;;;;17.08;15.40;;;;;;;27.25;55.27;92541.94;4935654;28;20215;-82
2022/06/22 09:21:02;;;;;;;15.77;14.27;;;;;;;27.39;53.81;92547.31;4986895;28;20185;-83
2022/06/22 09:23:39;;;;;;;15.68;14.27;;;;;;;27.08;55.11;92550.72;5003829;28;20293;-82
2022/06/22 09:26:14;;;;;;;16.10;14.63;;;;;;;27.48;54.04;92538.88;5002621;28;20249;-83
2022/06/22 09:28:52;;;;;;;16.15;14.55;;;;;;;27.22;54.77;92548.06;4999881;28;20218;-80
2022/06/22 09:31:30;;;;;;;19.95;14.15;;;;;;;27.22;54.46;92540.03;5003724;28;20270;-81
2022/06/22 09:34:05;;;;;;;15.27;13.70;;;;;;;26.94;55.27;92531.19;5000951;28;20191;-80
2022/06/22 09:36:40;;;;;;;15.00;13.50;;;;;;;27.23;54.42;92528.13;5001267;28;20291;-80
2022/06/22 09:39:23;;;;;;;14.45;13.18;;;;;;;27.46;53.56;92528.53;4983622;28;20213;-81
2022/06/22 09:42:15;;;;;;;14.38;12.93;;;;;;;27.42;54.22;92532.38;5001005;28;20235;-78
2022/06/22 09:44:49;;;;;;;15.82;13.57;;;;;;;26.76;53.00;92495.56;5000504;28;20206;-81
2022/06/22 09:47:35;;;;;;;15.77;14.13;;;;;;;27.35;53.72;92527.03;5001309;28;20297;-83
2022/06/22 09:50:19;;;;;;;14.85;12.68;;;;;;;27.63;51.08;92519.69;5000552;28;20203;-85
2022/06/22 09:53:02;;;;;;;15.07;13.13;;;;;;;27.85;52.14;92523.09;5004726;28;20281;-82
2022/06/22 09:58:27;;;;;;;15.15;13.55;;;;;;;28.38;50.78;92531.00;4999941;28;20224;-78
2022/06/22 10:01:16;;;;;;;15.35;13.85;;;;;;;28.70;50.49;92527.03;5001195;28;20235;-79
2022/06/22 10:04:18;;;;;;;13.93;12.85;;;;;;;29.06;50.31;92528.38;5008844;28;20194;-80
2022/06/22 10:06:58;;;;;;;14.38;13.00;;;;;;;27.85;51.92;92536.50;5005376;28;20276;-75
2022/06/22 10:09:36;;;;;;;16.30;14.60;;;;;;;27.15;53.46;92544.59;5000823;28;21062;-75
2022/06/22 10:12:20;;;;;;;15.07;13.48;;;;;;;27.64;53.60;92542.69;5005237;28;20227;-75
2022/06/22 10:15:11;;;;;;;14.88;13.35;;;;;;;28.28;53.24;92559.44;5003912;28;20184;-75
2022/06/22 10:17:55;;;;;;;15.20;13.80;;;;;;;28.23;51.24;92547.16;5003311;28;20239;-75
2022/06/22 10:20:40;;;;;;;14.43;13.02;;;;;;;28.06;52.43;92547.25;4993632;28;20200;-74
2022/06/22 10:23:43;;;;;;;18.83;13.45;;;;;;;28.24;52.50;92564.81;5006786;28;20192;-75
2022/06/22 10:26:35;;;;;;;18.02;14.27;;;;;;;27.96;50.76;92558.75;4992996;28;20234;-75
2022/06/22 10:29:25;;;;;;;13.82;12.63;;;;;;;28.51;51.37;92561.69;5000796;28;20196;-75
2022/06/22 10:32:09;;;;;;;13.57;12.40;;;;;;;28.61;50.95;92560.88;5003048;28;20230;-75
2022/06/22 10:34:46;;;;;;;16.08;13.10;;;;;;;28.02;50.59;92566.03;5004799;28;20206;-75
2022/06/22 10:37:26;;;;;;;13.77;12.65;;;;;;;27.55;51.91;92557.66;5003414;28;20232;-75
2022/06/22 10:45:08;;;;;;;14.98;13.70;;;;;;;27.18;54.33;92549.19;5001652;28;20200;-75
2022/06/22 10:46:19;;;;;;;13.68;12.48;;;;;;;27.49;53.16;92543.06;5004299;28;20226;-75
2022/06/22 10:49:13;;;;;;;14.30;13.07;;;;;;;27.34;55.11;92550.38;5004747;28;20199;-75
2022/06/22 10:51:57;;;;;;;13.25;12.15;;;;;;;27.24;55.24;92550.34;5002742;28;20895;-75
2022/06/22 10:54:49;;;;;;;15.60;13.35;;;;;;;27.28;54.70;92559.19;5003883;28;20226;-75
2022/06/22 10:57:46;;;;;;;12.88;11.80;;;;;;;26.92;55.40;92553.00;5006266;28;20227;-74
2022/06/22 11:00:39;;;;;;;14.93;13.40;;;;;;;26.96;56.38;92544.97;4986471;28;20191;-74
2022/06/22 11:03:41;;;;;;;13.82;12.52;;;;;;;27.48;55.92;92546.91;4965929;28;20223;-74
2022/06/22 11:06:22;;;;;;;14.40;13.13;;;;;;;27.48;55.83;92544.25;5004168;28;20236;-74
2022/06/22 11:09:22;;;;;;;12.95;11.95;;;;;;;27.41;55.50;92553.03;5003223;28;20210;-75
2022/06/22 11:11:57;;;;;;;14.50;12.93;;;;;;;27.53;55.09;92546.53;5002900;28;20244;-74
2022/06/22 11:14:56;;;;;;;14.95;12.18;;;;;;;27.52;55.24;92534.28;5000296;28;20218;-75
2022/06/22 11:18:09;;;;;;;15.60;12.57;;;;;;;27.27;57.08;92538.91;5004485;28;20232;-74
2022/06/22 11:20:40;;;;;;;14.88;13.45;;;;;;;27.55;56.64;92547.69;4961929;29;20205;-75
2022/06/22 11:23:15;;;;;;;16.80;15.18;;;;;;;28.04;55.40;92554.91;4961746;29;20274;-75
2022/06/22 11:31:41;;;;;;;15.48;13.07;;;;;;;27.34;56.45;92557.66;5003175;28;20233;-75
2022/06/22 11:34:39;;;;;;;14.07;12.38;;;;;;;27.21;54.94;92556.50;5001841;28;20191;-75
2022/06/22 11:37:14;;;;;;;15.75;12.55;;;;;;;27.35;55.75;92561.88;5001425;28;20326;-74
2022/06/22 11:40:24;;;;;;;13.90;12.60;;;;;;;27.32;56.11;92551.91;5001152;28;20313;-75
2022/06/22 11:42:56;;;;;;;14.50;13.20;;;;;;;26.85;58.56;92555.66;4989678;28;20219;-75
2022/06/22 11:45:52;;;;;;;14.43;13.32;;;;;;;26.52;57.99;92562.03;5004382;28;20195;-75
2022/06/22 11:48:45;;;;;;;13.75;12.20;;;;;;;26.69;57.35;92553.31;5002669;28;20195;-75
2022/06/22 11:51:22;;;;;;;15.13;12.50;;;;;;;26.85;56.94;92536.91;5001315;28;20824;-75
2022/06/22 11:53:53;;;;;;;14.35;13.05;;;;;;;27.43;55.83;92539.25;5006492;28;20219;-75
2022/06/22 11:56:43;;;;;;;15.05;13.60;;;;;;;27.89;55.61;92537.31;5002647;28;20242;-74
2022/06/22 11:59:34;;;;;;;14.05;12.77;;;;;;;27.73;55.33;92540.38;5002428;28;20185;-75
2022/06/22 12:02:48;;;;;;;12.40;11.27;;;;;;;27.72;52.74;92546.13;4985756;28;20259;-75
2022/06/22 12:05:46;;;;;;;14.50;12.98;;;;;;;27.72;48.63;92538.84;4986225;28;20199;-75
2022/06/22 12:08:33;;;;;;;13.32;11.95;;;;;;;28.12;47.66;92549.16;4949179;28;20219;-75
2022/06/22 12:11:34;;;;;;;14.55;12.85;;;;;;;28.14;49.10;92548.75;5002363;28;20254;-75
2022/06/22 12:17:38;;;;;;;14.90;12.95;;;;;;;27.69;52.59;92547.66;5004204;28;20241;-75
2022/06/22 12:20:41;;;;;;;13.50;12.27;;;;;;;27.82;53.98;92559.53;5004381;28;20202;-75
2022/06/22 12:23:30;;;;;;;13.63;12.00;;;;;;;27.25;53.31;92487.53;5001123;28;20216;-75
2022/06/22 12:26:40;;;;;;;13.80;12.48;;;;;;;27.73;52.08;92535.03;5002659;28;20258;-75
2022/06/22 12:29:39;;;;;;;14.63;13.40;;;;;;;27.27;53.28;92544.25;4984735;28;20198;-74
2022/06/22 12:32:21;;;;;;;14.73;12.15;;;;;;;26.94;56.07;92523.13;4999875;28;20717;-75
2022/06/22 12:35:23;;;;;;;14.32;12.93;;;;;;;27.27;56.67;92538.91;5000466;28;20221;-74